createdAt,value
2022-12-01T00:12:04.194Z,1017.87
2022-12-01T00:26:04.184Z,1017.84
2022-12-01T00:40:04.239Z,1017.81
2022-12-01T00:54:04.267Z,1017.9
2022-12-01T01:08:04.369Z,1018.04
2022-12-01T01:22:04.398Z,1018.09
2022-12-01T01:36:04.451Z,1018.09
2022-12-01T01:50:04.394Z,1018.12
2022-12-01T02:04:04.460Z,1017.99
2022-12-01T02:18:04.467Z,1017.9
2022-12-01T02:32:04.869Z,1017.81
2022-12-01T02:46:05.190Z,1017.68
2022-12-01T03:00:05.027Z,1017.54
2022-12-01T03:14:05.023Z,1017.61
2022-12-01T03:28:21.474Z,1017.53
2022-12-01T03:42:05.049Z,1017.5
2022-12-01T03:56:05.017Z,1017.46
2022-12-01T04:10:05.046Z,1017.45
2022-12-01T04:24:05.011Z,1017.36
2022-12-01T04:38:05.056Z,1017.33
2022-12-01T04:52:05.036Z,1017.31
2022-12-01T05:06:05.075Z,1017.33
2022-12-01T05:20:05.068Z,1017.39
2022-12-01T05:34:05.056Z,1017.41
2022-12-01T05:48:05.097Z,1017.38
2022-12-01T06:02:05.145Z,1017.32
2022-12-01T06:16:05.104Z,1017.33
2022-12-01T06:31:05.111Z,1017.29
2022-12-01T06:46:05.154Z,1017.47
2022-12-01T07:01:05.203Z,1017.56
2022-12-01T07:17:05.155Z,1017.68
2022-12-01T07:32:05.158Z,1017.87
2022-12-01T07:47:05.206Z,1017.86
2022-12-01T08:02:05.325Z,1017.98
2022-12-01T08:17:05.237Z,1018.02
2022-12-01T08:32:05.261Z,1017.98
2022-12-01T08:47:05.254Z,1018.03
2022-12-01T09:02:07.005Z,1018.15
2022-12-01T09:17:05.595Z,1018.12
2022-12-01T09:32:05.625Z,1018
2022-12-01T09:47:05.700Z,1017.98
2022-12-01T10:02:05.811Z,1017.76
2022-12-01T10:17:05.791Z,1017.62
2022-12-01T10:32:05.809Z,1017.48
2022-12-01T10:53:48.586Z,1017.34
2022-12-01T11:08:48.528Z,1017.31
2022-12-01T11:23:48.742Z,1017.27
2022-12-01T11:38:48.739Z,1017.37
2022-12-01T11:53:48.881Z,1017.25
2022-12-01T12:08:49.007Z,1017.11
2022-12-01T12:23:49.078Z,1017.07
2022-12-01T12:38:49.382Z,1016.92
2022-12-01T12:53:49.489Z,1016.83
2022-12-01T13:08:49.460Z,1016.73
2022-12-01T13:23:49.602Z,1016.57
2022-12-01T13:38:49.610Z,1016.7
2022-12-01T13:53:49.579Z,1016.6
2022-12-01T14:08:49.646Z,1016.64
2022-12-01T14:23:49.596Z,1016.87
2022-12-01T14:38:49.628Z,1016.87
2022-12-01T14:53:49.623Z,1016.94
2022-12-01T15:09:04.413Z,1016.9
2022-12-01T15:24:49.895Z,1016.88
2022-12-01T15:39:49.658Z,1016.89
2022-12-01T15:54:49.868Z,1016.98
2022-12-01T16:09:49.756Z,1016.99
2022-12-01T16:24:49.964Z,1017.02
2022-12-01T16:38:49.870Z,1017
2022-12-01T16:52:49.811Z,1017.07
2022-12-01T17:06:49.846Z,1017.12
2022-12-01T17:20:50.245Z,1017.3
2022-12-01T17:34:50.168Z,1017.42
2022-12-01T17:48:49.980Z,1017.5
2022-12-01T18:02:50.047Z,1017.68
2022-12-01T18:16:50.182Z,1017.8
2022-12-01T18:30:50.309Z,1017.83
2022-12-01T18:44:50.403Z,1017.87
2022-12-01T18:58:50.283Z,1017.98
2022-12-01T19:12:50.279Z,1018.07
2022-12-01T19:26:50.280Z,1018.15
2022-12-01T19:40:50.309Z,1018.35
2022-12-01T19:54:50.467Z,1018.41
2022-12-01T20:08:50.276Z,1018.56
2022-12-01T20:22:50.330Z,1018.68
2022-12-01T20:36:50.312Z,1018.67
2022-12-01T20:50:50.307Z,1018.77
2022-12-01T21:04:51.581Z,1018.75
2022-12-01T21:19:50.435Z,1018.77
2022-12-01T21:33:50.449Z,1018.9
2022-12-01T21:47:50.448Z,1019.08
2022-12-01T22:01:50.539Z,1019.13
2022-12-01T22:15:50.541Z,1019.21
2022-12-01T22:29:50.488Z,1019.31
2022-12-01T22:43:50.483Z,1019.38
2022-12-01T22:57:50.539Z,1019.39
2022-12-01T23:11:50.497Z,1019.46
2022-12-01T23:25:50.545Z,1019.45
2022-12-01T23:39:50.888Z,1019.37
2022-12-01T23:53:50.828Z,1019.3
